createdAt,value
2023-02-08T00:01:09.481Z,25.48
2023-02-08T00:06:15.206Z,31.23
2023-02-08T00:11:19.826Z,29.05
2023-02-08T00:16:35.665Z,32.08
2023-02-08T00:21:38.456Z,30.33
2023-02-08T00:26:41.360Z,31.52
2023-02-08T00:31:45.599Z,25.65
2023-02-08T00:36:48.676Z,28.45
2023-02-08T00:41:51.408Z,25.63
2023-02-08T00:46:55.981Z,31.48
2023-02-08T00:52:04.157Z,28.90
2023-02-08T00:57:09.205Z,28.02
2023-02-08T01:02:18.005Z,28.63
2023-02-08T01:07:21.471Z,27.70
2023-02-08T01:12:26.187Z,28.85
2023-02-08T01:17:30.343Z,28.45
2023-02-08T01:22:32.873Z,25.15
2023-02-08T01:27:35.597Z,26.58
2023-02-08T01:32:39.637Z,28.38
2023-02-08T01:37:42.138Z,25.90
2023-02-08T01:42:44.946Z,26.70
2023-02-08T01:47:53.447Z,27.33
2023-02-08T01:52:56.575Z,26.58
2023-02-08T01:58:03.889Z,23.73
2023-02-08T02:03:08.727Z,26.55
2023-02-08T02:08:12.779Z,25.70
2023-02-08T02:13:18.501Z,26.55
2023-02-08T02:18:25.691Z,25.15
2023-02-08T02:24:11.639Z,29.45
2023-02-08T02:29:44.503Z,26.73
2023-02-08T02:34:54.158Z,26.45
2023-02-08T02:40:06.427Z,28.75
2023-02-08T02:45:22.144Z,27.27
2023-02-08T02:50:33.176Z,30.00
2023-02-08T02:55:41.041Z,28.50
2023-02-08T03:00:44.033Z,30.92
2023-02-08T03:05:48.383Z,26.40
2023-02-08T03:11:01.156Z,27.40
2023-02-08T03:16:16.286Z,30.15
2023-02-08T03:21:29.276Z,31.20
2023-02-08T03:26:36.821Z,29.98
2023-02-08T03:31:46.138Z,34.03
2023-02-08T03:36:53.763Z,29.00
2023-02-08T03:42:00.987Z,28.90
2023-02-08T03:47:20.457Z,29.23
2023-02-08T03:52:25.323Z,34.20
2023-02-08T03:57:30.830Z,25.65
2023-02-08T04:02:39.101Z,26.95
2023-02-08T04:07:43.143Z,27.83
2023-02-08T04:12:48.110Z,26.33
2023-02-08T04:17:50.649Z,32.92
2023-02-08T04:22:54.611Z,29.25
2023-02-08T04:27:57.065Z,28.20
2023-02-08T04:32:59.646Z,29.50
2023-02-08T04:38:03.644Z,32.42
2023-02-08T04:43:15.681Z,31.65
2023-02-08T04:48:32.986Z,33.97
2023-02-08T04:53:56.784Z,34.63
2023-02-08T04:59:08.539Z,34.10
2023-02-08T05:04:17.865Z,34.22
2023-02-08T05:09:28.188Z,35.17
2023-02-08T05:14:38.130Z,34.42
2023-02-08T05:19:44.120Z,31.65
2023-02-08T05:24:48.655Z,32.53
2023-02-08T05:29:50.789Z,32.45
2023-02-08T05:34:52.883Z,34.05
2023-02-08T05:39:56.453Z,31.48
2023-02-08T05:44:58.502Z,29.48
2023-02-08T05:50:00.870Z,30.90
2023-02-08T05:55:04.716Z,31.38
2023-02-08T06:00:07.967Z,30.65
2023-02-08T06:05:10.173Z,33.13
2023-02-08T06:10:14.002Z,32.45
2023-02-08T06:15:16.312Z,31.05
2023-02-08T06:20:18.655Z,32.03
2023-02-08T06:25:22.262Z,35.88
2023-02-08T06:30:24.716Z,30.50
2023-02-08T06:35:26.910Z,36.25
2023-02-08T06:40:30.585Z,43.15
2023-02-08T06:45:32.663Z,32.67
2023-02-08T06:50:34.891Z,33.75
2023-02-08T06:55:39.283Z,31.50
2023-02-08T07:00:41.747Z,39.05
2023-02-08T07:05:58.769Z,32.47
2023-02-08T07:11:12.945Z,36.45
2023-02-08T07:16:15.746Z,33.67
2023-02-08T07:21:18.117Z,35.95
2023-02-08T07:26:21.797Z,35.80
2023-02-08T07:31:23.961Z,37.30
2023-02-08T07:36:26.165Z,38.10
2023-02-08T07:41:29.766Z,33.80
2023-02-08T07:46:31.920Z,33.85
2023-02-08T07:51:34.123Z,33.80
2023-02-08T07:56:37.744Z,29.48
2023-02-08T08:01:40.099Z,29.45
2023-02-08T08:06:42.239Z,28.90
2023-02-08T08:11:45.872Z,32.03
2023-02-08T08:16:48.110Z,29.77
2023-02-08T08:21:50.263Z,31.85
2023-02-08T08:26:53.959Z,34.22
2023-02-08T08:31:56.155Z,28.55
2023-02-08T08:36:58.750Z,28.60
2023-02-08T08:42:02.834Z,27.17
2023-02-08T08:47:05.174Z,24.85
2023-02-08T08:52:07.456Z,25.10
2023-02-08T08:57:11.628Z,25.23
2023-02-08T09:02:14.844Z,25.30
2023-02-08T09:07:17.209Z,23.50
2023-02-08T09:12:20.794Z,25.85
2023-02-08T09:17:22.975Z,23.63
2023-02-08T09:22:25.100Z,26.00
2023-02-08T09:27:28.793Z,28.27
2023-02-08T09:32:32.561Z,25.02
2023-02-08T09:37:35.329Z,24.13
2023-02-08T09:42:44.560Z,22.38
2023-02-08T09:47:54.536Z,23.17
2023-02-08T09:53:04.176Z,25.20
2023-02-08T09:58:19.456Z,20.15
2023-02-08T10:03:33.722Z,23.67
2023-02-08T10:08:37.371Z,20.00
2023-02-08T10:13:52.632Z,19.98
2023-02-08T10:19:06.799Z,17.73
2023-02-08T10:24:22.914Z,19.65
2023-02-08T10:29:48.499Z,18.90
2023-02-08T10:34:54.715Z,16.08
2023-02-08T10:40:00.914Z,16.02
2023-02-08T10:45:23.935Z,16.73
2023-02-08T10:50:34.187Z,15.90
2023-02-08T10:55:39.814Z,17.45
2023-02-08T11:00:44.748Z,16.20
2023-02-08T11:05:47.033Z,19.10
2023-02-08T11:10:59.622Z,16.40
2023-02-08T11:16:06.518Z,16.02
2023-02-08T11:21:21.173Z,16.15
2023-02-08T11:26:31.576Z,16.85
2023-02-08T11:31:35.336Z,18.17
2023-02-08T11:36:45.769Z,15.35
2023-02-08T11:41:50.657Z,15.10
2023-02-08T11:46:57.596Z,14.20
2023-02-08T11:51:59.974Z,13.73
2023-02-08T11:57:10.056Z,11.38
2023-02-08T12:02:36.178Z,13.50
2023-02-08T12:07:59.704Z,19.48
2023-02-08T12:13:23.296Z,12.43
2023-02-08T12:19:00.990Z,12.27
2023-02-08T12:24:11.802Z,13.48
2023-02-08T12:29:38.405Z,17.92
2023-02-08T12:35:04.670Z,14.43
2023-02-08T12:40:27.749Z,13.93
2023-02-08T12:45:48.117Z,13.80
2023-02-08T12:50:56.305Z,14.63
2023-02-08T12:56:05.598Z,14.52
2023-02-08T13:01:14.003Z,11.90
2023-02-08T13:06:21.414Z,11.18
2023-02-08T13:11:33.044Z,12.23
2023-02-08T13:16:41.845Z,10.80
2023-02-08T13:21:47.388Z,13.95
2023-02-08T13:26:51.273Z,11.85
2023-02-08T13:31:58.747Z,9.80
2023-02-08T13:37:08.814Z,8.95
2023-02-08T13:42:23.590Z,9.80
2023-02-08T13:47:29.795Z,11.95
2023-02-08T13:52:50.235Z,9.52
2023-02-08T13:57:57.622Z,12.48
2023-02-08T14:03:01.735Z,12.02
2023-02-08T14:08:06.957Z,13.05
2023-02-08T14:13:25.737Z,11.85
2023-02-08T14:18:28.951Z,9.05
2023-02-08T14:23:33.145Z,10.48
2023-02-08T14:28:39.426Z,9.77
2023-02-08T14:33:50.242Z,9.45
2023-02-08T14:39:05.840Z,10.00
2023-02-08T14:44:53.543Z,9.25
2023-02-08T14:50:05.511Z,10.23
2023-02-08T14:55:16.427Z,8.80
2023-02-08T15:00:23.008Z,10.15
2023-02-08T15:05:28.602Z,9.27
2023-02-08T15:10:32.346Z,8.93
2023-02-08T15:15:37.956Z,8.60
2023-02-08T15:20:41.917Z,7.03
2023-02-08T15:25:44.893Z,7.55
2023-02-08T15:30:55.371Z,8.48
2023-02-08T15:36:03.601Z,7.82
2023-02-08T15:41:09.709Z,49.17
2023-02-08T15:46:20.434Z,13.43
2023-02-08T15:51:25.082Z,17.27
2023-02-08T15:56:39.350Z,11.98
2023-02-08T16:01:47.521Z,46.33
2023-02-08T16:06:53.664Z,13.63
2023-02-08T16:11:58.750Z,13.45
2023-02-08T16:17:01.074Z,12.23
2023-02-08T16:22:25.546Z,63.13
2023-02-08T16:27:30.548Z,10.13
2023-02-08T16:32:35.423Z,9.25
2023-02-08T16:37:39.295Z,9.80
2023-02-08T16:42:41.603Z,16.52
2023-02-08T16:47:46.114Z,21.70
2023-02-08T16:52:53.426Z,8.48
2023-02-08T16:57:57.718Z,9.60
2023-02-08T17:03:00.127Z,12.85
2023-02-08T17:08:04.858Z,10.00
2023-02-08T17:13:19.906Z,17.63
2023-02-08T17:18:23.378Z,14.10
2023-02-08T17:23:27.057Z,10.05
2023-02-08T17:28:29.231Z,12.20
2023-02-08T17:33:31.426Z,12.60
2023-02-08T17:38:35.479Z,15.20
2023-02-08T17:43:37.747Z,15.98
2023-02-08T17:48:39.915Z,14.73
2023-02-08T17:53:44.101Z,15.93
2023-02-08T17:58:50.121Z,11.82
2023-02-08T18:03:55.252Z,10.48
2023-02-08T18:08:59.000Z,13.00
2023-02-08T18:14:01.112Z,13.80
2023-02-08T18:19:03.220Z,12.82
2023-02-08T18:24:07.201Z,16.63
2023-02-08T18:29:10.528Z,21.50
2023-02-08T18:34:12.822Z,12.15
2023-02-08T18:39:16.480Z,17.20
2023-02-08T18:44:19.076Z,19.80
2023-02-08T18:49:21.233Z,16.33
2023-02-08T18:54:24.702Z,17.25
2023-02-08T18:59:26.945Z,16.20
2023-02-08T19:04:29.318Z,14.57
2023-02-08T19:09:34.844Z,14.02
2023-02-08T19:14:37.013Z,15.77
2023-02-08T19:19:39.114Z,19.73
2023-02-08T19:24:42.630Z,16.20
2023-02-08T19:29:44.732Z,29.20
2023-02-08T19:34:46.806Z,25.40
2023-02-08T19:39:50.791Z,19.70
2023-02-08T19:44:52.910Z,15.52
2023-02-08T19:49:56.819Z,14.75
2023-02-08T19:55:00.797Z,14.73
2023-02-08T20:00:06.230Z,15.52
2023-02-08T20:05:10.769Z,27.20
2023-02-08T20:10:14.269Z,19.60
2023-02-08T20:15:16.488Z,12.55
2023-02-08T20:20:18.767Z,23.20
2023-02-08T20:25:22.749Z,17.25
2023-02-08T20:30:25.296Z,31.65
2023-02-08T20:35:27.412Z,34.90
2023-02-08T20:40:30.902Z,13.57
2023-02-08T20:45:33.166Z,13.18
2023-02-08T20:50:35.432Z,13.98
2023-02-08T20:55:42.367Z,11.98
2023-02-08T21:00:46.491Z,15.18
2023-02-08T21:05:48.757Z,15.98
2023-02-08T21:10:52.260Z,16.10
2023-02-08T21:15:54.458Z,14.95
2023-02-08T21:20:56.712Z,16.30
2023-02-08T21:26:00.841Z,14.35
2023-02-08T21:31:05.667Z,19.65
2023-02-08T21:36:08.851Z,22.17
2023-02-08T21:41:15.411Z,17.63
2023-02-08T21:46:18.419Z,19.58
2023-02-08T21:51:21.720Z,22.95
2023-02-08T21:56:25.358Z,23.15
2023-02-08T22:01:27.605Z,22.42
2023-02-08T22:06:29.738Z,24.33
2023-02-08T22:11:33.370Z,24.02
2023-02-08T22:16:35.476Z,20.00
2023-02-08T22:21:37.567Z,19.40
2023-02-08T22:26:41.143Z,15.77
2023-02-08T22:31:43.381Z,20.08
2023-02-08T22:36:45.750Z,17.45
2023-02-08T22:41:49.495Z,17.50
2023-02-08T22:46:51.705Z,17.67
2023-02-08T22:51:53.913Z,17.52
2023-02-08T22:56:57.630Z,16.85
2023-02-08T23:01:59.974Z,18.40
2023-02-08T23:07:02.224Z,16.77
2023-02-08T23:12:06.320Z,18.63
2023-02-08T23:17:08.653Z,16.13
2023-02-08T23:22:10.767Z,19.63
2023-02-08T23:27:14.219Z,18.23
2023-02-08T23:32:16.276Z,15.68
2023-02-08T23:37:18.378Z,13.23
2023-02-08T23:42:21.965Z,15.52
2023-02-08T23:47:25.688Z,16.33
2023-02-08T23:52:27.789Z,17.23
2023-02-08T23:57:34.015Z,15.60
